Aviation Digital Data Service (ADDS)

Output produced by METARs form (0707 UTC 24 March 2019)
found at http://www.aviationweather.gov/metar/data/
 
TAF CYXX 240540Z 2406/2506 VRB03KT P6SM FEW120 BKN200 
     FM241400 VRB03KT P6SM SCT080 BKN120 
     FM250400 VRB03KT P6SM SCT060 RMK NXT FCST BY 241200Z
       
TAF CYEK 240539Z 2406/2418 32028G38KT 1/4SM -SN BLSN VV004 RMK FCST BASED ON
AUTO OBS. NXT FCST BY 241200Z
       
TAF CYBG 240530Z 2406/2506 25012KT P6SM FEW100 
     FM240800 26015KT P6SM BKN050 OVC100 
     TEMPO 2408/2412 5SM -SHSN OVC030 
     FM241200 28020G35KT 1SM -SHSN BLSN VV010 
     FM241400 29020G35KT P6SM FEW030 BKN140 
     PROB30 2414/2418 2SM BLSN 
     FM241800 29020G30KT P6SM SKC 
     BECMG 2422/2424 27010KT RMK NXT FCST BY 241200Z
       
TAF CYBC 240138Z 2402/2414 34010KT P6SM SKC 
     FM240900 24010KT P6SM BKN030 
     TEMPO 2412/2414 6SM -SHSN RMK FCST BASED ON AUTO OBS. NXT FCST BY 240800Z
       
TAF CYBK 240539Z 2406/2418 31030G40KT 1/4SM IC +BLSN VV004 
     TEMPO 2406/2418 30015G25KT 1SM IC BLSN BKN005 RMK NXT FCST BY 241200Z
       
TAF AMD CZBF 232016Z 2320/2403 32012G22KT 6SM -SN SCT015 BKN030 
     TEMPO 2320/2324 11/2SM -SHSN BKN015 OVC030 RMK FCST BASED ON AUTO OBS. NXT
FCST WILL BE ISSUED AT 240845Z
       
TAF CYBR 240539Z 2406/2418 05020G30KT P6SM SCT012 SCT250 
     TEMPO 2406/2410 BKN012 
     FM241000 06018G28KT P6SM SCT250 
     BECMG 2411/2413 06015G25KT RMK NXT FCST BY 241200Z
       
TAF CYVT 240038Z 2401/2404 04008KT P6SM FEW100 RMK NXT FCST WILL BE ISSUED AT
241345Z
       
TAF CYDB 240538Z 2406/2418 14012G22KT P6SM BKN180 
     FM241200 16008KT P6SM SCT100 
     BECMG 2415/2417 VRB03KT RMK FCST BASED ON AUTO OBS. NXT FCST BY 241200Z
       
TAF CYYC 240547Z 2406/2506 36008KT 1/2SM FG OVC002 
     TEMPO 2406/2408 21/2SM BR OVC005 
     FM240800 02008KT 1/4SM FG OVC002 
     TEMPO 2408/2412 2SM -SN BR OVC005 
     FM241200 02005KT 1/8SM FZFG VV001 
     TEMPO 2413/2416 1/2SM FZFG OVC004 
     FM241600 08007KT 1SM BR BKN002 
     TEMPO 2416/2420 3SM BR OVC006 
     FM242000 10008KT 6SM BR SCT005 BKN010 RMK NXT FCST BY 240900Z
       
TAF AMD CYBW 240329Z 2403/2404 04008KT 2SM BR SCT140 BKN230 
     TEMPO 2403/2404 1/2SM FG SCT002 BKN140 RMK FCST BASED ON AUTO OBS. NXT FCST
WILL BE ISSUED AT 241145Z
       
TAF CYCB 240638Z 2407/2419 32008KT P6SM FEW240 
     TEMPO 2407/2419 5SM IC RMK NXT FCST BY 241300Z
       
TAF CYBL 240038Z 2401/2404 09005KT P6SM FEW050 
     TEMPO 2401/2404 BKN050 RMK NXT FCST WILL BE ISSUED AT 241445Z
       
TAF CYTE 240638Z 2407/2419 31023G33KT 1/2SM -SN BLSN VV006 
     TEMPO 2407/2417 2SM -SN BKN013 
     FM241700 36020G30KT 1SM -SN BLSN BKN015 
     TEMPO 2417/2419 3SM -SN SCT015 RMK FCST BASED ON AUTO OBS. NXT FCST BY
241300Z
       
TAF CYCG 240038Z 2401/2404 36005KT P6SM FEW050 SCT070 BKN240 
     TEMPO 2401/2404 P6SM -SHRA BKN050 OVC070 RMK NXT FCST WILL BE ISSUED AT
241445Z
       
TAF CYLD 231938Z 2320/2401 26010G20KT P6SM FEW120 
     BECMG 2320/2322 23012KT RMK NXT FCST WILL BE ISSUED AT 241145Z
       
TAF CYYG 240538Z 2406/2418 31015G25KT P6SM BKN060 
     TEMPO 2406/2409 BKN020 
     FM240900 29015G25KT P6SM FEW030 
     BECMG 2416/2418 24015G25KT RMK NXT FCST BY 241200Z
       
TAF CYYQ 240539Z 2406/2506 32020G30KT P6SM SKC 
     TEMPO 2406/2412 5SM IC BLSN 
     FM241200 32020G30KT P6SM SCT015 
     TEMPO 2412/2506 3SM -SN BLSN BKN015 RMK NXT FCST BY 241200Z
       
TAF CZUM 240138Z 2402/2414 32007KT P6SM -SN OVC030 
     TEMPO 2402/2406 4SM -SN OVC020 
     FM240600 25012KT P6SM FEW040 
     FM241100 24015G25KT P6SM BKN050 RMK FCST BASED ON AUTO OBS. NXT FCST BY
240800Z
       
TAF CYCY 240638Z 2407/2419 33020G30KT 3/4SM -SN BLSN OVC020 
     TEMPO 2407/2409 3SM -SN OVC030 
     BECMG 2407/2409 35025G35KT 
     FM240900 35025G35KT 1/4SM -SN +BLSN VV015 RMK FCST BASED ON AUTO OBS. NXT
FCST BY 241300Z
       
TAF CYOD 240530Z 2406/2506 10010KT P6SM FEW025 BKN250 
     TEMPO 2409/2414 BKN025 
     FM241400 10005KT P6SM BKN020 BKN250 
     FM242000 10008KT P6SM FEW020 BKN250 
     BECMG 2500/2502 18008KT RMK NXT FCST BY 241200Z
       
TAF CYQQ 240539Z 2406/2506 VRB03KT P6SM SKC 
     FM241200 VRB03KT P6SM FEW015 SCT250 
     BECMG 2414/2416 32005KT 
     FM242100 03005KT P6SM SKC 
     BECMG 2423/2501 VRB03KT RMK NXT FCST BY 241200Z
       
TAF CYXC 240638Z 2407/2419 25005KT P6SM SCT080 BKN200 
     FM241200 VRB03KT P6SM OVC050 
     TEMPO 2412/2418 5SM -SHRA BR BKN020 RMK NXT FCST BY 241300Z
       
TAF CYDN 240539Z 2406/2418 05018G28KT P6SM FEW030 
     BECMG 2406/2408 05012KT RMK FCST BASED ON AUTO OBS. NXT FCST BY 241200Z
       
TAF CYDQ 240038Z 2401/2405 VRB03KT P6SM BKN070 
     FM240300 08004KT P6SM BKN040 RMK FCST BASED ON AUTO OBS. NXT FCST WILL BE
ISSUED AT 241245Z
       
TAF CYDL 232339Z 2400/2402 VRB03KT P6SM BKN060 RMK FCST BASED ON AUTO OBS. NXT
FCST WILL BE ISSUED AT 241545Z
       
TAF CYDF 240138Z 2402/2414 23007KT P6SM OVC100 
     FM240400 23007KT P6SM BKN040 
     TEMPO 2404/2414 3SM -SHSN OVC015 
     BECMG 2410/2412 27012G22KT RMK NXT FCST BY 240800Z
       
TAF AMD CYHD 240308Z 2403/2414 03015G25KT P6SM SCT025 
     TEMPO 2403/2404 BKN015 
     PROB30 2403/2404 BKN008 OVC015 
     FM240400 03015G25KT P6SM -SN SCT008 OVC015 
     TEMPO 2404/2407 P6SM NSW SCT015 BKN025 
     PROB30 2404/2407 BKN008 OVC015 
     FM240700 04012G22KT P6SM BKN020 
     TEMPO 2407/2409 SCT020 
     FM240900 05010G20KT P6SM FEW030 
     FM241200 05010KT P6SM SKC RMK FCST BASED ON AUTO OBS. NXT FCST BY 240800Z
       
TAF CYEG 240547Z 2406/2506 06003KT P6SM FEW060 SCT220 
     FM240900 VRB03KT 6SM BR BKN220 
     TEMPO 2409/2418 2SM BR 
     PROB30 2413/2418 1/4SM FZFG 
     FM241800 11010KT P6SM BKN008 BKN250 
     TEMPO 2418/2421 2SM BR 
     FM242100 12012KT P6SM SCT006 BKN012 RMK NXT FCST BY 240900Z
       
TAF CZVL 240547Z 2406/2418 08003KT P6SM FEW060 BKN220 
     FM240900 10006KT 6SM BR BKN220 
     TEMPO 2409/2418 2SM BR 
     PROB30 2413/2418 1/4SM FZFG RMK FCST BASED ON AUTO OBS. NXT FCST BY 241200Z
       
TAF CYPY 232339Z 2400/2406 06012KT P6SM SKC RMK FCST BASED ON AUTO OBS. NXT FCST
WILL BE ISSUED AT 241145Z
       
TAF CYMM 240638Z 2407/2419 11006KT P6SM FEW030 SCT240 RMK FCST BASED ON AUTO
OBS. NXT FCST BY 241300Z
       
TAF CYYE 240638Z 2407/2419 VRB03KT P6SM FEW040 SCT120 BKN220 RMK NXT FCST BY
241300Z
       
TAF CYFS 240538Z 2406/2418 13010G20KT P6SM FEW150 SCT220 
     BECMG 2412/2414 12008KT RMK NXT FCST BY 241200Z
       
TAF CYSM 240547Z 2406/2418 13005KT P6SM FEW110 
     FM240900 12005KT P6SM FEW060 BKN110 
     FM241300 12005KT P6SM FEW110 SCT250 RMK NXT FCST BY 241200Z
       
TAF CYXJ 240638Z 2407/2419 VRB03KT P6SM SCT050 BKN090 
     FM241300 VRB03KT P6SM FEW040 SCT250 RMK NXT FCST BY 241300Z
       
TAF CYFC 240538Z 2406/2418 29012KT P6SM SKC 
     BECMG 2413/2415 27010G20KT RMK FCST BASED ON AUTO OBS. NXT FCST BY 241200Z
       
TAF AMD CYQX 240650Z 2406/2506 24010KT 6SM -SHSN OVC012 
     TEMPO 2406/2414 3SM -SHSN OVC005 
     FM241400 27012G22KT P6SM BKN025 
     TEMPO 2414/2418 5SM -SHRASN BR OVC020 
     FM242000 26012G22KT P6SM SCT030 
     FM250000 26012G22KT P6SM BKN050 
     FM250300 26010G20KT P6SM BKN030 
     FM250500 28012G22KT P6SM FEW030 RMK NXT FCST BY 241200Z
       
TAF CYGP 240138Z 2402/2414 29010KT P6SM BKN025 
     TEMPO 2402/2408 BKN015 
     FM240800 29012KT P6SM FEW030 RMK NXT FCST BY 240800Z
       
TAF AMD CYGQ 240619Z 2406/2414 02012G22KT 3SM -SHSN BKN020 
     TEMPO 2406/2408 P6SM NSW BKN025 
     FM240800 02012G22KT P6SM BKN020 
     TEMPO 2408/2409 SCT020 
     FM240900 02010G20KT P6SM FEW020 
     BECMG 2411/2413 02008KT RMK NXT FCST BY 240800Z
       
TAF CYHK 240538Z 2406/2418 35020KT 1/2SM IC BLSN VV003 
     TEMPO 2406/2418 3SM BR SCT003 RMK FCST BASED ON AUTO OBS. NXT FCST BY
241200Z
       
TAF CYYR 240530Z 2406/2506 28005KT 6SM -SN OVC025 
     TEMPO 2406/2408 5SM -SN OVC020 
     FM240800 25010KT P6SM BKN025 
     FM241100 25010KT P6SM FEW100 FEW220 
     FM241400 26015G25KT P6SM BKN030 OVC100 
     TEMPO 2414/2418 5SM -SHSN 
     FM241800 27020G35KT 2SM -SHSN BLSN OVC030 
     FM242000 27020G35KT P6SM BKN050 
     FM250000 27020G30KT P6SM SCT050 
     BECMG 2500/2502 25015G25KT RMK NXT FCST BY 241200Z
       
TAF CYZE 231938Z 2320/2322 25012G22KT P6SM SKC RMK FCST BASED ON AUTO OBS. NXT
FCST WILL BE ISSUED AT 240945Z
       
TAF CYQU 240638Z 2407/2419 VRB03KT P6SM BKN070 
     FM240900 05005KT P6SM FEW040 SCT250 
     FM241600 01005KT P6SM SCT030 BKN250 
     TEMPO 2416/2419 FEW010 BKN030 RMK NXT FCST BY 241300Z
       
TAF CYZX 240531Z 2406/2506 28015KT P6SM OVC030 
     FM240700 28010KT P6SM SKC 
     BECMG 2412/2414 27010G20KT 
     FM242200 25010KT P6SM BKN030 OVC240 
     FM250000 24008KT P6SM -SHRA OVC030 
     FM250400 VRB03KT P6SM -SHSN OVC020 RMK NXT FCST BY 241200Z
       
TAF CYHZ 240538Z 2406/2506 30015G25KT P6SM BKN030 
     TEMPO 2406/2409 BKN015 
     FM240900 29012G22KT P6SM FEW030 
     BECMG 2422/2424 26008KT 
     FM250200 27010KT 5SM -SN OVC020 
     BECMG 2504/2506 05008KT RMK NXT FCST BY 240900Z
       
TAF CYUX 240638Z 2407/2419 03035G45KT 1/8SM IC +BLSN VV015 RMK FCST BASED ON
AUTO OBS. NXT FCST BY 241300Z
       
TAF CYHM 240538Z 2406/2506 22010KT P6SM SKC 
     FM241500 24010G20KT P6SM OVC150 
     FM250000 35012KT P6SM SCT050 BKN220 
     FM250500 03012KT P6SM BKN050 RMK NXT FCST BY 241200Z
       
TAF CYGV 240138Z 2402/2414 01010KT P6SM OVC040 
     TEMPO 2402/2404 5SM -SN OVC020 
     FM240400 30010KT P6SM BKN030 
     TEMPO 2404/2408 BKN020 
     FM240800 27012KT P6SM FEW030 
     BECMG 2411/2413 26015G25KT RMK FCST BASED ON AUTO OBS. NXT FCST BY 240800Z
       
TAF CYHY 240538Z 2406/2418 10008KT P6SM FEW220 RMK NXT FCST BY 241200Z
       
TAF CYOJ 240638Z 2407/2419 14007KT P6SM SCT260 RMK FCST BASED ON AUTO OBS. NXT
FCST BY 241300Z
       
TAF AMD CYGR 240032Z 2400/2402 28010KT 1SM -SNRA BR OVC002 
     TEMPO 2400/2402 6SM BR OVC008 
     BECMG 2400/2402 33020G30KT RMK NXT FCST WILL BE ISSUED AT 241045Z
       
TAF CYEV 240638Z 2407/2419 15012G22KT P6SM SCT120 
     BECMG 2412/2414 14008KT RMK NXT FCST BY 241300Z
       
TAF CYFB 240538Z 2406/2506 14020G30KT P6SM -SN BKN040 
     TEMPO 2406/2409 21/2SM -SN BLSN OVC030 
     BECMG 2406/2408 14015G25KT 
     FM240900 14015G25KT P6SM SCT040 
     TEMPO 2409/2411 5SM -SN BLSN BKN040 
     BECMG 2409/2411 12007KT 
     FM241500 VRB03KT P6SM FEW040 
     BECMG 2418/2420 30008KT 
     FM242000 30008KT P6SM SCT040 
     TEMPO 2420/2422 P6SM -SN BKN040 
     FM242200 33010KT 3SM -SN BKN030 OVC060 RMK NXT FCST BY 241200Z
       
TAF CYKA 240638Z 2407/2419 VRB03KT P6SM FEW100 BKN220 
     FM241200 VRB03KT P6SM FEW100 OVC160 
     BECMG 2413/2415 28008KT RMK NXT FCST BY 241300Z
       
TAF AMD CYAS 232007Z 2320/2321 21024G37KT 1/2SM -SN BLSN OVC020 
     TEMPO 2320/2321 1SM -SN BLSN RMK NXT FCST WILL BE ISSUED AT 241345Z
       
TAF CYYU 240138Z 2402/2414 26010KT P6SM SCT040 
     FM240300 29010KT 6SM -RASN OVC025 
     TEMPO 2403/2405 1SM -SN VV010 
     FM240500 29010KT 6SM -SN FEW010 OVC040 
     TEMPO 2405/2409 1SM -SN VV010 
     BECMG 2405/2407 36015G25KT 
     FM240900 36010G20KT P6SM BKN030 
     FM241200 36010G20KT P6SM FEW030 RMK NXT FCST BY 240800Z
       
TAF CYLW 240638Z 2407/2419 35005KT P6SM FEW080 BKN180 RMK FCST BASED ON AUTO
OBS. NXT FCST BY 241300Z
       
TAF CYQK 240138Z 2402/2414 32008KT P6SM FEW240 
     FM240300 02012G22KT P6SM SCT025 
     TEMPO 2403/2404 6SM -RASN BR BKN020 
     FM240400 04012G22KT P6SM -SN SCT008 OVC015 
     TEMPO 2404/2407 P6SM NSW BKN025 
     FM240700 04012G22KT P6SM SCT020 
     TEMPO 2407/2409 BKN020 
     FM240900 05010G20KT P6SM FEW030 
     FM241200 05010KT P6SM SKC RMK NXT FCST BY 240800Z
       
TAF CYKF 240138Z 2402/2414 24008KT P6SM SKC 
     BECMG 2412/2414 26010KT RMK FCST BASED ON AUTO OBS. NXT FCST BY 240800Z
       
TAF AMD CYBB 232253Z 2322/2324 31010G20KT P6SM SCT160 
     TEMPO 2322/2324 3SM IC BR 
     PROB30 2322/2324 2SM IC BLSN RMK NXT FCST WILL BE ISSUED AT 241845Z
       
TAF CYCO 240638Z 2407/2419 11010KT P6SM SKC 
     FM241500 13012KT P6SM SCT240 RMK NXT FCST BY 241300Z
       
TAF AMD CYVP 240629Z 2406/2418 28012G22KT P6SM -SN BKN030 OVC110 
     TEMPO 2406/2408 11/2SM -SN BLSN OVC015 
     FM240800 28012G22KT P6SM SCT020 BKN030 
     TEMPO 2408/2412 11/2SM -SN BLSN OVC015 
     FM241200 27015G25KT 21/2SM -SN BLSN BKN025 RMK NXT FCST BY 241200Z
       
TAF CYGL 240539Z 2406/2506 30018G28KT 6SM -SN BLSN SCT009 OVC025 
     TEMPO 2406/2412 11/2SM -SN BLSN BKN008 OVC020 
     FM241200 29018G28KT 6SM -SN BLSN SCT009 OVC025 
     TEMPO 2412/2418 11/2SM -SN BLSN OVC020 
     BECMG 2412/2414 27020G35KT 
     FM241800 27020G35KT 6SM -SHSN BLSN BKN040 
     PROB30 2418/2424 11/2SM -SHSN BLSN RMK NXT FCST BY 241200Z
       
TAF CYVC 240638Z 2407/2419 05010KT P6SM SKC 
     BECMG 2408/2410 05005KT RMK NXT FCST BY 241300Z
       
TAF CYQL 240547Z 2406/2418 34010KT 6SM BR FEW015 SCT100 BKN220 
     TEMPO 2406/2409 2SM -SHRA BR BKN015 OVC050 
     FM240900 36012KT 3SM BR OVC015 
     TEMPO 2409/2412 2SM -RASN BR OVC006 
     FM241200 01010KT 3SM BR OVC010 
     TEMPO 2412/2418 1/2SM FG OVC004 RMK FCST BASED ON AUTO OBS. NXT FCST BY
241200Z
       
TAF CYLL 240547Z 2406/2418 06008KT P6SM SCT250 
     FM240900 11010KT P6SM SCT008 
     TEMPO 2409/2411 BKN008 
     PROB30 2411/2414 1/2SM FZFG 
     FM241400 12008KT P6SM SCT010 RMK FCST BASED ON AUTO OBS. NXT FCST BY
241200Z
       
TAF CYXU 240538Z 2406/2506 25005KT P6SM SKC 
     FM241200 24010KT P6SM BKN160 
     FM241700 26015KT P6SM OVC100 
     FM250000 35012KT P6SM BKN050 RMK NXT FCST BY 241200Z
       
TAF AMD CYBX 240225Z 2402/2414 28010KT 1/4SM FZFG VV002 
     TEMPO 2402/2404 2SM -SN BR SCT002 OVC015 
     PROB30 2402/2404 1SM -FZDZ BR 
     FM240400 33007KT P6SM OVC025 
     TEMPO 2404/2410 4SM -SN OVC015 
     PROB30 2404/2410 5SM -FZDZ BR 
     FM241000 31010G20KT P6SM OVC030 
     TEMPO 2410/2414 3SM -SHSN OVC015 RMK NXT FCST BY 240800Z
       
TAF CYYL 240638Z 2407/2419 VRB03KT P6SM SKC 
     BECMG 2416/2418 32007KT RMK FCST BASED ON AUTO OBS. NXT FCST BY 241300Z
       
TAF CYZY 240638Z 2407/2409 VRB03KT P6SM SCT160 RMK FCST BASED ON AUTO OBS. NXT
FCST WILL BE ISSUED AT 241445Z
       
TAF AMD CYSP 231923Z 2319/2321 24010G20KT P6SM SCT009 
     TEMPO 2319/2321 BKN009 RMK NXT FCST WILL BE ISSUED AT 241345Z
       
TAF CYMA 240538Z 2406/2418 VRB03KT P6SM BKN070 
     FM241200 12006KT P6SM SCT020 BKN040 
     TEMPO 2412/2418 P6SM -RA BKN020 OVC040 RMK NXT FCST BY 241200Z
       
TAF AMD CYXH 240655Z 2406/2418 05010KT P6SM SCT012 BKN025 
     TEMPO 2406/2418 BKN012 
     PROB30 2411/2415 2SM BR BKN006 RMK FCST BASED ON AUTO OBS. NXT FCST BY
241200Z
       
TAF CYQM 240538Z 2406/2506 25012KT P6SM BKN030 
     TEMPO 2406/2407 BKN020 
     FM240700 26012KT P6SM FEW030 
     BECMG 2412/2414 26012G22KT 
     FM242000 27012G22KT P6SM BKN030 
     TEMPO 2422/2501 P6SM -RASN 
     BECMG 2422/2424 31010KT 
     FM250200 03006KT P6SM BKN060 
     BECMG 2504/2506 08006KT RMK NXT FCST BY 241200Z
       
TAF CYYY 240138Z 2402/2414 28012G22KT P6SM FEW060 
     BECMG 2407/2409 25012KT 
     FM241000 25015KT P6SM BKN030 
     TEMPO 2412/2414 5SM -SN BKN020 RMK NXT FCST BY 240800Z
       
TAF CYUL 240538Z 2406/2506 24012G22KT P6SM SKC 
     FM241200 24010G20KT P6SM SCT030 
     FM241500 26012G22KT P6SM OVC030 
     FM241700 26012KT P6SM -SHRA OVC025 
     TEMPO 2419/2421 5SM -SHRASN BR OVC025 
     FM242100 30012KT 21/2SM -SHSN OVC015 
     TEMPO 2421/2501 5SM -SN OVC030 
     FM250100 31012KT P6SM BKN060 
     FM250300 31012KT P6SM SCT060 RMK NXT FCST BY 240900Z
       
TAF CYMX 240538Z 2406/2506 23012KT P6SM SKC 
     FM241200 24012KT P6SM SCT030 
     FM241500 27012KT P6SM OVC025 
     FM241700 27010KT P6SM -RA OVC030 
     TEMPO 2417/2420 4SM -RASN BR OVC020 
     FM242000 31010KT 21/2SM -SHSN OVC015 
     TEMPO 2420/2424 5SM -SN OVC030 
     FM250000 31012KT P6SM BKN060 
     FM250200 31012KT P6SM SCT060 RMK NXT FCST BY 241200Z
       
TAF CYHU 240538Z 2406/2506 24012G22KT P6SM SKC 
     FM241200 24010G20KT P6SM SCT030 
     FM241500 26012G22KT P6SM OVC030 
     FM241700 26012KT P6SM -SHRA OVC025 
     TEMPO 2419/2421 5SM -SHRASN BR OVC025 
     FM242100 30012KT 21/2SM -SHSN OVC015 
     TEMPO 2421/2501 5SM -SN OVC030 
     FM250100 31012KT P6SM BKN060 
     FM250300 31012KT P6SM SCT060 RMK FCST BASED ON AUTO OBS. NXT FCST BY
241200Z
       
TAF CYQA 231938Z 2320/2402 27010G20KT P6SM SKC 
     BECMG 2322/2324 26010KT RMK FCST BASED ON AUTO OBS. NXT FCST WILL BE ISSUED
AT 241145Z
       
TAF CYCD 232339Z 2400/2404 VRB03KT P6SM FEW060 SCT080 
     TEMPO 2400/2404 BKN080 RMK NXT FCST WILL BE ISSUED AT 241445Z
       
TAF CYNA 240138Z 2402/2414 36015KT 6SM -SN SCT012 OVC030 
     TEMPO 2402/2405 21/4SM -SN OVC012 
     PROB30 2402/2405 2SM -SN 
     FM240500 33015KT P6SM BKN030 
     TEMPO 2405/2407 5SM -SN BKN020 
     FM240700 30012KT P6SM BKN020 
     TEMPO 2407/2411 BKN030 
     FM241100 29012KT P6SM FEW030 
     BECMG 2412/2414 27012G22KT RMK FCST BASED ON AUTO OBS. NXT FCST BY 240800Z
       
TAF CYVQ 240538Z 2406/2418 11012G22KT P6SM FEW040 SCT220 
     BECMG 2408/2410 11008KT 
     BECMG 2413/2415 VRB03KT RMK NXT FCST BY 241200Z
       
TAF CYQW 240539Z 2406/2418 10012KT P6SM SCT015 
     TEMPO 2406/2410 BKN015 
     FM241000 09015KT P6SM FEW020 
     FM241500 09010KT P6SM FEW030 RMK FCST BASED ON AUTO OBS. NXT FCST BY
241200Z
       
TAF CYYB 240138Z 2402/2414 25012KT P6SM SKC 
     BECMG 2409/2411 02010KT 
     FM241100 02010KT 6SM -SN OVC025 
     TEMPO 2411/2414 1SM -SN VV010 RMK NXT FCST BY 240800Z
       
TAF CYOO 240138Z 2402/2414 26006KT P6SM SKC 
     BECMG 2409/2411 22006KT RMK FCST BASED ON AUTO OBS. NXT FCST BY 240800Z
       
TAF CYOW 240538Z 2406/2506 22007KT P6SM SKC 
     BECMG 2412/2414 23015KT 
     FM241500 28010G20KT P6SM BKN030 
     FM241800 34012KT P6SM -RASN OVC030 
     TEMPO 2418/2420 3SM -SN OVC020 
     FM242000 34012KT 21/2SM -SHSN OVC015 
     TEMPO 2420/2424 5SM -SN OVC030 
     FM250000 32010KT P6SM BKN050 
     FM250300 32012KT P6SM SCT050 RMK NXT FCST BY 240900Z
       
TAF AMD CYPC 231910Z 2319/2323 15015G30KT P6SM FEW110 BKN210 
     TEMPO 2319/2323 4SM BLSN RMK NXT FCST WILL BE ISSUED AT 241445Z
       
TAF CYPE 240638Z 2407/2419 08006KT P6SM FEW070 SCT250 
     BECMG 2416/2418 13005KT RMK NXT FCST BY 241300Z
       
TAF CYYF 240638Z 2407/2419 36005KT P6SM FEW100 OVC160 
     FM241500 35005KT P6SM BKN060 RMK NXT FCST BY 241300Z
       
TAF CYWA 240530Z 2406/2418 VRB03KT P6SM SKC 
     BECMG 2409/2411 28010KT SCT020 BKN030 
     FM241500 35012KT P6SM SCT020 BKN030 
     TEMPO 2415/2418 3SM -SHSN OVC020 RMK FCST BASED ON AUTO OBS. NXT FCST BY
241200Z
       
TAF CYPQ 231938Z 2320/2402 29012G22KT P6SM SKC 
     BECMG 2400/2402 28012KT RMK FCST BASED ON AUTO OBS. NXT FCST WILL BE ISSUED
AT 240945Z
       
TAF CYPL 231938Z 2320/2402 26015KT P6SM SKC 
     FM240000 33008KT P6SM SCT008 OVC015 
     TEMPO 2400/2402 BKN025 
     PROB30 2400/2402 BKN008 OVC015 RMK NXT FCST WILL BE ISSUED AT 241245Z
       
TAF CYIO 240638Z 2407/2419 07015KT P6SM SKC 
     TEMPO 2407/2417 3SM IC BLSN 
     FM241700 06012KT P6SM SKC RMK FCST BASED ON AUTO OBS. NXT FCST BY 241300Z
       
TAF CYZT 240638Z 2407/2419 VRB03KT P6SM FEW080 
     PROB30 2407/2412 1SM BR BKN004 RMK NXT FCST BY 241300Z
       
TAF CYPA 240638Z 2407/2419 06010KT P6SM SCT020 
     TEMPO 2407/2410 BKN020 
     FM241000 07007KT P6SM FEW020 
     FM241300 09007KT P6SM SKC RMK NXT FCST BY 241300Z
       
TAF CYXS 240638Z 2407/2419 VRB03KT P6SM FEW200 
     FM241200 03005KT P6SM SCT200 RMK FCST BASED ON AUTO OBS. NXT FCST BY
241300Z
       
TAF CYPR 240638Z 2407/2419 07005KT P6SM SKC RMK FCST BASED ON AUTO OBS. NXT FCST
BY 241300Z
       
TAF CYPX 240538Z 2406/2418 28020G30KT 1SM IC BLSN SKC 
     TEMPO 2406/2410 5SM IC 
     BECMG 2408/2410 30027G37KT 
     FM241000 30027G37KT 1/4SM IC +BLSN VV004 
     TEMPO 2410/2418 2SM BR SCT004 RMK FCST BASED ON AUTO OBS. NXT FCST BY
241200Z
       
TAF CYVM 240638Z 2407/2419 VRB03KT 2SM -SN BR OVC020 
     TEMPO 2407/2414 P6SM -SN OVC030 
     BECMG 2412/2414 06007KT 
     FM241400 06007KT 1SM -SN BR OVC020 
     TEMPO 2414/2419 3SM -SN OVC030 RMK FCST BASED ON AUTO OBS. NXT FCST BY
241300Z
       
TAF AMD CYHA 231941Z 2319/2321 18030G42KT 1/8SM -SN +BLSN VV006 RMK NXT FCST
WILL BE ISSUED AT 241345Z
       
TAF CYQB 240541Z 2406/2506 26012KT P6SM SKC 
     FM241300 24012G22KT P6SM -SN SCT020 BKN040 
     FM241400 24012G22KT 6SM -SN OVC025 
     TEMPO 2414/2418 21/2SM -SN OVC020 
     PROB40 2414/2418 11/2SM -SN VV012 
     FM241800 30012G22KT P6SM SCT020 OVC080 
     FM242100 30010KT P6SM SCT100 
     FM242300 29008KT P6SM SKC RMK NXT FCST BY 241200Z
       
TAF CYQZ 240038Z 2401/2406 32004KT P6SM FEW040 BKN240 RMK FCST BASED ON AUTO
OBS. NXT FCST WILL BE ISSUED AT 241145Z
       
TAF CYRT 240539Z 2406/2418 34032G42KT 1/8SM IC +BLSN VV004 RMK NXT FCST BY
241200Z
       
TAF CYQF 240547Z 2406/2418 35004KT 1/8SM FZFG VV001 
     FM241000 VRB03KT 1/4SM FZFG VV002 
     TEMPO 2410/2412 2SM BR SCT002 BKN220 
     FM241200 08005KT 6SM BR BKN012 
     TEMPO 2412/2418 2SM BR BKN006 
     PROB30 2413/2418 1/2SM FZFG RMK NXT FCST BY 241200Z
       
TAF AMD CYRL 240013Z 2400/2402 02022G32KT P6SM BKN050 BKN100 
     TEMPO 2400/2401 BKN020 BKN050 
     FM240100 02018G28KT P6SM BKN030 
     TEMPO 2401/2402 SCT008 OVC015 RMK NXT FCST WILL BE ISSUED AT 241045Z
       
TAF CYQR 240539Z 2406/2506 08018G28KT P6SM SCT012 
     TEMPO 2406/2410 BKN012 
     FM241000 09018G28KT P6SM OVC010 
     TEMPO 2410/2418 3SM -SN BR OVC008 
     BECMG 2412/2414 09015G25KT 
     FM241800 09012KT P6SM BKN015 
     TEMPO 2418/2421 SCT015 
     FM242100 11010KT P6SM SCT020 RMK NXT FCST BY 241200Z
       
TAF CYRB 240538Z 2406/2506 35022G32KT P6SM IC FEW030 
     TEMPO 2406/2416 32007KT 2SM IC BLSN 
     FM241600 35018G28KT P6SM IC SKC 
     TEMPO 2416/2424 5SM IC BLSN 
     BECMG 2422/2424 35012KT 
     FM250000 35012KT P6SM IC SKC RMK NXT FCST BY 241200Z
       
TAF CYRJ 231938Z 2320/2402 30020G30KT P6SM FEW025 
     BECMG 2321/2323 30012G22KT RMK NXT FCST WILL BE ISSUED AT 241145Z
       
TAF CYUY 240541Z 2406/2418 25010KT P6SM SCT060 
     TEMPO 2406/2407 BKN060 
     FM240700 27010KT 6SM -SN OVC025 
     TEMPO 2407/2409 11/2SM -SN VV012 
     FM240900 27010KT 11/2SM -SN VV012 
     TEMPO 2409/2411 6SM -SN OVC020 
     BECMG 2409/2411 35015G25KT 
     FM241100 35012G22KT P6SM -SN OVC025 
     TEMPO 2411/2413 3SM -SN OVC020 
     FM241300 35012G22KT P6SM FEW030 
     BECMG 2415/2417 31010KT RMK NXT FCST BY 241200Z
       
TAF CYSJ 240538Z 2406/2418 31012G22KT P6SM SKC 
     BECMG 2412/2414 25010G20KT RMK NXT FCST BY 241200Z
       
TAF CYZP 240638Z 2407/2419 13015KT P6SM FEW012 
     TEMPO 2407/2416 FEW008 BKN012 
     BECMG 2410/2412 13010KT 
     FM241600 VRB03KT P6SM FEW012 
     TEMPO 2416/2418 BKN012 RMK FCST BASED ON AUTO OBS. NXT FCST BY 241300Z
       
TAF CYZR 231938Z 2320/2402 01005KT P6SM SKC 
     BECMG 2322/2324 25008KT RMK FCST BASED ON AUTO OBS. NXT FCST WILL BE ISSUED
AT 240745Z
       
TAF CYXE 240539Z 2406/2506 07015G25KT P6SM BKN012 
     TEMPO 2406/2410 SCT012 
     BECMG 2407/2409 07012KT 
     FM241000 08010KT P6SM FEW020 
     FM241800 09010KT P6SM SCT030 RMK NXT FCST BY 241200Z
       
TAF CYAM 240138Z 2402/2414 22008KT P6SM FEW250 
     FM240900 22008KT P6SM SCT030 
     FM241100 04008KT 6SM -SN OVC025 
     TEMPO 2411/2414 1SM -SN VV010 RMK NXT FCST BY 240800Z
       
TAF CYKL 240138Z 2402/2414 VRB03KT P6SM FEW000 
     TEMPO 2402/2405 2SM IC 
     FM240500 24012KT P6SM -SN OVC030 
     TEMPO 2405/2414 3SM -SN OVC020 RMK FCST BASED ON AUTO OBS. NXT FCST BY
240800Z
       
TAF CYZV 240538Z 2406/2506 32008KT P6SM SKC 
     FM241100 24012KT P6SM BKN030 
     FM241400 32015G25KT P6SM BKN030 
     TEMPO 2414/2417 P6SM -SHSN 
     FM241700 31018G28KT P6SM SKC 
     BECMG 2422/2424 31012KT 
     BECMG 2504/2506 27012KT RMK NXT FCST BY 241200Z
       
TAF CYSC 232338Z 2400/2403 26012G22KT P6SM SKC RMK FCST BASED ON AUTO OBS. NXT
FCST WILL BE ISSUED AT 241045Z
       
TAF AMD CYXL 240310Z 2403/2414 04012G25KT P6SM -SN SCT008 OVC015 
     TEMPO 2403/2406 P6SM NSW SCT015 BKN025 
     PROB30 2403/2406 BKN008 OVC015 
     FM240600 03012G22KT P6SM BKN020 
     TEMPO 2406/2408 SCT020 
     FM240800 03010G20KT P6SM FEW030 
     FM241200 03007KT P6SM SKC RMK NXT FCST BY 240800Z
       
TAF CYZH 240638Z 2407/2419 11007KT P6SM FEW050 SCT250 RMK FCST BASED ON AUTO
OBS. NXT FCST BY 241300Z
       
TAF CYYD 240038Z 2401/2406 VRB03KT P6SM FEW060 SCT240 RMK NXT FCST WILL BE
ISSUED AT 241345Z
       
TAF AMD CYAY 240606Z 2406/2414 27010G20KT P6SM -SN BKN030 
     TEMPO 2406/2414 3SM -SHSN BKN008 OVC015 RMK FCST BASED ON AUTO OBS. NXT
FCST BY 240800Z
       
TAF CYYT 240538Z 2406/2506 25015G25KT P6SM OVC025 
     TEMPO 2406/2414 3SM -SHSN BKN008 OVC015 
     FM241400 26015G25KT P6SM BKN015 
     TEMPO 2414/2418 BKN025 
     FM241800 24015G25KT P6SM BKN030 
     FM242300 26015G25KT P6SM SCT020 
     FM250500 26010G20KT P6SM SCT100 RMK NXT FCST BY 241200Z
       
TAF CYJT 240538Z 2406/2506 VRB03KT P6SM -SN OVC015 
     TEMPO 2406/2414 3SM -SHSN OVC007 
     BECMG 2407/2409 30010KT 
     FM241400 30010G20KT P6SM BKN030 
     TEMPO 2414/2418 4SM -SHSN OVC020 
     FM241800 26015G25KT P6SM -SHSN OVC025 
     TEMPO 2418/2502 3SM -SHSN OVC015 
     PROB30 2418/2502 1SM -SHSN VV007 
     FM250200 30015G25KT P6SM BKN030 
     FM250500 35012KT P6SM SCT015 RMK NXT FCST BY 241200Z
       
TAF CYSB 240138Z 2402/2414 22012KT P6SM SKC 
     BECMG 2409/2411 02010KT 
     FM241100 02010KT 6SM -SN OVC025 
     TEMPO 2411/2414 1SM -SN VV010 RMK NXT FCST BY 240800Z
       
TAF CYYN 240539Z 2406/2418 08015G25KT P6SM SCT020 
     TEMPO 2406/2409 BKN020 
     FM240900 09015G25KT P6SM BKN015 
     TEMPO 2409/2418 3SM -SN BKN008 
     PROB30 2409/2416 2SM -FZDZ BR BKN005 RMK FCST BASED ON AUTO OBS. NXT FCST
BY 241200Z
       
TAF CYQY 240538Z 2406/2418 25012G22KT P6SM BKN050 
     TEMPO 2406/2414 P6SM -SN BKN012 
     FM241400 28015G25KT P6SM FEW030 RMK NXT FCST BY 241200Z
       
TAF CYYH 232339Z 2400/2412 34015KT P6SM IC BKN030 
     TEMPO 2400/2403 3SM -SN BLSN 
     FM240300 34014KT P6SM IC FEW030 RMK NXT FCST BY 240600Z
       
TAF CYXT 240638Z 2407/2419 VRB03KT P6SM FEW200 
     BECMG 2410/2412 01010KT RMK NXT FCST BY 241300Z
       
TAF CYQD 240638Z 2407/2419 06005KT P6SM SKC 
     BECMG 2411/2413 VRB03KT RMK FCST BASED ON AUTO OBS. NXT FCST BY 241300Z
       
TAF CYTH 240638Z 2407/2419 VRB03KT P6SM SKC 
     BECMG 2415/2417 30008KT RMK NXT FCST BY 241300Z
       
TAF CYQT 240138Z 2402/2414 25010KT P6SM FEW100 
     FM240400 34008KT P6SM SCT015 
     TEMPO 2404/2407 SCT008 BKN015 
     BECMG 2404/2406 03012G22KT 
     FM240700 03012G22KT P6SM BKN025 
     TEMPO 2407/2412 P6SM -SN BKN020 
     FM241200 04012G22KT P6SM SCT040 
     TEMPO 2412/2414 BKN040 RMK NXT FCST BY 240800Z
       
TAF CYTS 240138Z 2402/2414 26010KT P6SM FEW240 
     FM240400 26010KT P6SM SCT040 
     FM240600 32010G20KT 6SM -SN OVC025 
     TEMPO 2406/2411 1SM -SN VV010 
     BECMG 2406/2407 35015G25KT 
     FM241100 36010G20KT P6SM BKN030 
     FM241300 36010G20KT P6SM FEW030 RMK NXT FCST BY 240800Z
       
TAF AMD CYAZ 232101Z 2321/2401 VRB03KT P6SM FEW025 SCT050 
     TEMPO 2321/2401 P6SM -SHRA SCT025 BKN040 RMK NXT FCST WILL BE ISSUED AT
241445Z
       
TAF CYTZ 240138Z 2402/2502 28010G20KT P6SM SKC 
     BECMG 2404/2406 23012KT 
     FM241500 26010G20KT P6SM FEW030 OVC170 
     FM241900 27012G22KT P6SM BKN050 OVC170 
     FM242300 31012G22KT P6SM OVC030 RMK FCST BASED ON AUTO OBS. NXT FCST BY
240800Z
       
TAF CYYZ 240538Z 2406/2512 21005KT P6SM SKC 
     FM241500 26010G20KT P6SM BKN220 
     FM241900 27010G20KT P6SM SCT050 OVC170 
     FM242300 34012G22KT P6SM OVC040 
     TEMPO 2501/2503 P6SM -SHSNRA BKN040 
     BECMG 2501/2503 35015G25KT 
     FM250500 35015KT P6SM SKC RMK NXT FCST BY 240900Z
       
TAF CYTR 240530Z 2406/2506 25012KT P6SM SKC 
     FM241500 25012G22KT P6SM BKN030 OVC200 
     FM242200 28010G20KT P6SM -SHRA OVC030 
     BECMG 2423/2501 35012G22KT 
     FM250200 35012G22KT 6SM -SHSN OVC030 
     FM250400 35012KT P6SM SCT030 RMK NXT FCST BY 241200Z
       
TAF CYRQ 240138Z 2402/2414 24008KT P6SM SKC 
     FM241200 23012KT P6SM BKN030 
     TEMPO 2412/2414 5SM -SN OVC020 RMK FCST BASED ON AUTO OBS. NXT FCST BY
240800Z
       
TAF CYUB 240038Z 2401/2405 11015G25KT P6SM FEW020 BKN110 
     TEMPO 2401/2405 SCT100 RMK NXT FCST WILL BE ISSUED AT 241445Z
       
TAF CYVO 240541Z 2406/2418 23010KT P6SM SCT060 
     TEMPO 2406/2407 BKN060 
     FM240700 26008KT 6SM -SN OVC025 
     TEMPO 2407/2409 11/2SM -SN VV012 
     FM240900 26010KT 11/2SM -SN VV012 
     TEMPO 2409/2411 3SM -SN OVC020 
     BECMG 2409/2411 34015G25KT 
     FM241100 34015G25KT P6SM -SN OVC025 
     TEMPO 2411/2414 3SM -SN OVC020 
     FM241400 35012G22KT P6SM FEW030 
     BECMG 2415/2417 31010KT RMK FCST BASED ON AUTO OBS. NXT FCST BY 241200Z
       
TAF CYVR 240540Z 2406/2512 08005KT P6SM FEW240 
     FM241200 10005KT P6SM FEW030 SCT100 OVC180 
     FM241600 12005KT P6SM FEW050 BKN080 
     BECMG 2418/2420 27007KT 
     FM250200 VRB03KT P6SM SCT080 
     BECMG 2506/2508 07007KT RMK NXT FCST BY 240900Z
       
TAF CYYJ 240540Z 2406/2506 VRB03KT P6SM FEW050 SCT250 
     FM241500 28005KT P6SM FEW040 SCT140 
     FM250000 VRB03KT P6SM FEW240 RMK NXT FCST BY 241200Z
       
TAF CYWK 240138Z 2402/2414 22007KT P6SM SKC 
     FM240800 24010KT P6SM BKN040 
     TEMPO 2408/2414 3SM -SN OVC015 
     BECMG 2411/2413 27015G25KT RMK NXT FCST BY 240800Z
       
TAF CYQH 240538Z 2406/2418 VRB03KT P6SM SCT008 OVC040 
     TEMPO 2406/2409 P6SM -RA BKN008 OVC040 
     FM240900 VRB03KT P6SM SCT080 
     PROB30 2409/2416 1SM BR RMK NXT FCST BY 241200Z
       
TAF CYXZ 231938Z 2320/2324 22012G22KT P6SM FEW015 
     BECMG 2320/2322 23010KT RMK NXT FCST WILL BE ISSUED AT 241245Z
       
TAF AMD CYZU 232011Z 2320/2323 12012KT P6SM SCT030 
     TEMPO 2320/2323 BKN008 RMK NXT FCST WILL BE ISSUED AT 241415Z
       
TAF CYXY 240538Z 2406/2418 16008KT P6SM FEW140 RMK NXT FCST BY 241200Z
       
TAF CYVV 231938Z 2320/2323 25010G20KT P6SM SKC RMK NXT FCST WILL BE ISSUED AT
241045Z
       
TAF CYWL 240638Z 2407/2419 33008KT P6SM BKN240 
     FM240900 30006KT P6SM SCT050 BKN240 
     TEMPO 2409/2415 P6SM -RA BKN050 
     FM241500 VRB03KT P6SM SCT240 RMK NXT FCST BY 241300Z
       
TAF CYQG 240538Z 2406/2506 22005KT P6SM SCT240 
     FM241000 23006KT P6SM BKN150 
     FM241600 23012KT P6SM OVC100 
     FM242200 26010G20KT P6SM BKN050 OVC090 
     BECMG 2502/2504 04010KT RMK FCST BASED ON AUTO OBS. NXT FCST BY 241200Z
       
TAF CYWG 240539Z 2406/2506 03022G32KT P6SM BKN020 
     TEMPO 2406/2408 SCT020 
     FM240800 04015G25KT P6SM FEW020 
     FM241500 05015KT P6SM FEW030 
     BECMG 2418/2420 04012KT RMK NXT FCST BY 241200Z
       
TAF CYQI 240538Z 2406/2418 31018G28KT P6SM SKC 
     BECMG 2406/2408 28015G25KT RMK NXT FCST BY 241200Z
       
TAF CYZF 240538Z 2406/2506 10012KT P6SM FEW070 BKN100 
     TEMPO 2406/2414 P6SM -SN BKN070 
     FM241400 11012KT P6SM SCT240 
     BECMG 2418/2420 13014G24KT 
     BECMG 2502/2504 13008KT RMK NXT FCST BY 241200Z
       
TAF AMD CYQV 240249Z 2402/2406 04018G28KT P6SM BKN020 
     TEMPO 2402/2406 SCT020 
     BECMG 2404/2406 06012KT RMK FCST BASED ON AUTO OBS. NXT FCST WILL BE ISSUED
AT 241145Z